Time;durP1;ratioP1;P1;durP2;ratioP2;P2;SDS_P1;SDS_P2;PMS_P1;PMS_P2;Temp;Humidity;BMP_temperature;BMP_pressure;BME280_temperature;BME280_humidity;BME280_pressure;Samples;Min_cycle;Max_cycle;Signal;HPM_P1;HPM_P2
2022/07/23 00:02:21;;;;;;;5.78;4.18;;;17.70;79.30;;;;;;4998343;28;20065;-75
2022/07/23 00:04:47;;;;;;;14.15;8.32;;;17.70;79.30;;;;;;4992104;28;20113;-76
2022/07/23 00:07:12;;;;;;;13.93;6.30;;;17.60;79.80;;;;;;5001861;28;20079;-76
2022/07/23 00:09:38;;;;;;;7.68;6.88;;;17.60;78.70;;;;;;4977880;28;20063;-76
2022/07/23 00:12:04;;;;;;;7.05;6.35;;;17.50;78.60;;;;;;4973219;28;20049;-76
2022/07/23 00:14:29;;;;;;;18.00;9.23;;;17.50;79.00;;;;;;5006698;28;20034;-76
2022/07/23 00:16:55;;;;;;;13.30;8.77;;;17.50;79.80;;;;;;4955222;28;20041;-76
2022/07/23 00:19:20;;;;;;;16.83;9.60;;;17.40;78.70;;;;;;5000994;28;20034;-76
2022/07/23 00:21:46;;;;;;;12.48;10.13;;;17.40;79.60;;;;;;5016721;28;20033;-76
2022/07/23 00:24:12;;;;;;;12.43;9.88;;;17.40;80.00;;;;;;5002090;28;20038;-75
2022/07/23 00:26:37;;;;;;;14.48;10.50;;;17.30;80.60;;;;;;5011464;28;20032;-76
2022/07/23 00:29:03;;;;;;;14.07;10.63;;;17.30;80.20;;;;;;4965951;28;20412;-76
2022/07/23 00:31:28;;;;;;;10.60;8.23;;;17.30;83.30;;;;;;5006988;28;20044;-76
2022/07/23 00:33:56;;;;;;;13.07;9.40;;;17.20;81.00;;;;;;4985411;28;20036;-76
2022/07/23 00:36:23;;;;;;;16.15;10.77;;;17.20;81.00;;;;;;5005419;28;20076;-76
2022/07/23 00:38:49;;;;;;;14.13;9.45;;;17.20;81.40;;;;;;4966515;28;20394;-76
2022/07/23 00:41:15;;;;;;;15.60;10.77;;;17.10;81.10;;;;;;5015258;28;20437;-76
2022/07/23 00:43:40;;;;;;;15.65;11.40;;;17.10;81.20;;;;;;4974346;28;20121;-76
2022/07/23 00:46:06;;;;;;;16.42;10.85;;;17.10;83.60;;;;;;4990572;28;20502;-76
2022/07/23 00:48:31;;;;;;;16.42;12.40;;;17.10;80.80;;;;;;4989119;28;20030;-76
2022/07/23 00:50:57;;;;;;;16.55;11.73;;;17.00;81.20;;;;;;4992331;28;20046;-76
2022/07/23 00:53:23;;;;;;;17.60;12.02;;;17.00;81.80;;;;;;4978555;28;20041;-76
2022/07/23 00:55:49;;;;;;;19.25;10.77;;;17.00;88.40;;;;;;4967867;28;20026;-76
2022/07/23 00:58:15;;;;;;;18.70;12.07;;;17.00;85.00;;;;;;4971855;28;20026;-76
2022/07/23 01:00:41;;;;;;;16.05;11.50;;;17.00;83.40;;;;;;4987262;28;20026;-76
2022/07/23 01:03:07;;;;;;;19.58;12.10;;;16.90;83.80;;;;;;4988773;28;20038;-76
2022/07/23 01:05:33;;;;;;;15.93;11.70;;;16.90;85.30;;;;;;4983371;28;20040;-76
2022/07/23 01:07:58;;;;;;;21.20;11.85;;;16.90;89.60;;;;;;4966223;28;20030;-76
2022/07/23 01:10:33;;;;;;;16.33;12.18;;;16.90;84.90;;;;;;4981409;28;20065;-76
2022/07/23 01:13:05;;;;;;;21.17;12.23;;;16.90;84.90;;;;;;4957437;28;20027;-76
2022/07/23 01:15:32;;;;;;;16.20;11.73;;;16.90;85.60;;;;;;4987146;28;20300;-76
2022/07/23 01:17:57;;;;;;;18.33;12.65;;;16.90;85.30;;;;;;4973603;28;20117;-75
2022/07/23 01:20:23;;;;;;;15.18;11.20;;;16.80;85.20;;;;;;4988538;28;20460;-76
2022/07/23 01:22:48;;;;;;;18.45;12.02;;;16.80;87.90;;;;;;4989560;28;20562;-76
2022/07/23 01:25:14;;;;;;;18.35;13.55;;;16.80;86.40;;;;;;4990152;28;20549;-76
2022/07/23 01:27:40;;;;;;;19.95;12.35;;;16.80;86.00;;;;;;5005667;28;20211;-76
2022/07/23 01:30:06;;;;;;;19.20;12.38;;;16.80;86.80;;;;;;4973881;28;20481;-76
2022/07/23 01:32:31;;;;;;;22.08;12.50;;;16.80;87.40;;;;;;4984866;28;20111;-76
2022/07/23 01:34:57;;;;;;;22.25;13.60;;;16.80;86.00;;;;;;4961430;28;20474;-76
2022/07/23 01:37:22;;;;;;;21.77;15.10;;;16.70;87.00;;;;;;4997845;28;20037;-76
2022/07/23 01:39:48;;;;;;;22.55;14.32;;;16.70;86.00;;;;;;4991771;28;20030;-76
2022/07/23 01:42:13;;;;;;;23.58;14.63;;;16.70;86.80;;;;;;4977497;28;20164;-76
2022/07/23 01:44:39;;;;;;;22.42;15.13;;;16.70;87.50;;;;;;4990110;28;20026;-77
2022/07/23 01:47:05;;;;;;;21.65;14.70;;;16.70;87.60;;;;;;4997864;28;20482;-76
2022/07/23 01:49:31;;;;;;;29.92;15.32;;;16.70;89.60;;;;;;5008871;28;20053;-76
2022/07/23 01:52:02;;;;;;;22.70;14.23;;;16.70;90.60;;;;;;5014269;28;20422;-77
2022/07/23 01:54:32;;;;;;;26.35;14.93;;;16.70;90.40;;;;;;4964810;28;20482;-76
2022/07/23 01:56:58;;;;;;;19.40;13.50;;;16.70;90.80;;;;;;4970386;28;20118;-76
2022/07/23 01:59:23;;;;;;;24.38;15.10;;;16.70;91.50;;;;;;5002840;28;20572;-76
2022/07/23 02:01:50;;;;;;;21.52;15.77;;;16.70;91.80;;;;;;4982564;28;20058;-76
2022/07/23 02:04:17;;;;;;;24.55;15.48;;;16.70;91.80;;;;;;4971692;28;20026;-76
2022/07/23 02:06:42;;;;;;;20.30;15.27;;;16.70;91.00;;;;;;5010311;28;20037;-76
2022/07/23 02:09:08;;;;;;;24.13;15.25;;;16.70;90.70;;;;;;5004812;28;20022;-76
2022/07/23 02:11:33;;;;;;;22.63;16.10;;;16.60;91.50;;;;;;5000169;28;20109;-76
2022/07/23 02:13:59;;;;;;;21.70;15.70;;;16.60;92.50;;;;;;5008018;28;20202;-76
2022/07/23 02:16:24;;;;;;;19.95;14.50;;;16.50;95.60;;;;;;4988763;28;20139;-76
2022/07/23 02:18:50;;;;;;;20.95;15.80;;;16.50;93.40;;;;;;4988516;28;20092;-77
2022/07/23 02:21:15;;;;;;;25.80;17.20;;;16.60;95.50;;;;;;4990896;28;20022;-76
2022/07/23 02:23:41;;;;;;;24.55;17.45;;;16.50;95.00;;;;;;5007253;28;20029;-76
2022/07/23 02:26:06;;;;;;;19.92;15.68;;;16.50;94.50;;;;;;4991504;28;20157;-76
2022/07/23 02:28:32;;;;;;;14.63;11.05;;;16.50;94.90;;;;;;5006377;28;20132;-76
2022/07/23 02:30:57;;;;;;;22.02;15.63;;;16.50;95.50;;;;;;4988950;28;20026;-76
2022/07/23 02:33:23;;;;;;;20.58;15.45;;;16.60;94.80;;;;;;4976944;28;20026;-76
2022/07/23 02:35:49;;;;;;;22.92;15.68;;;16.60;94.80;;;;;;4992169;28;20081;-76
2022/07/23 02:38:14;;;;;;;22.73;15.05;;;16.50;95.70;;;;;;4976011;28;20526;-76
2022/07/23 02:40:40;;;;;;;23.05;15.48;;;16.50;94.80;;;;;;5007732;28;20390;-76
2022/07/23 02:43:05;;;;;;;20.92;15.32;;;16.50;98.70;;;;;;4991333;28;20378;-76
2022/07/23 02:45:31;;;;;;;24.75;17.05;;;16.40;98.10;;;;;;4991818;28;20107;-76
2022/07/23 02:47:57;;;;;;;23.00;14.90;;;16.40;95.80;;;;;;4978230;28;20033;-76
2022/07/23 02:50:22;;;;;;;20.17;15.05;;;16.30;96.60;;;;;;5006966;28;20038;-76
2022/07/23 02:52:48;;;;;;;20.17;14.23;;;16.20;97.70;;;;;;4981669;28;20030;-76
2022/07/23 02:55:13;;;;;;;26.23;14.85;;;16.20;99.30;;;;;;4986381;28;20199;-76
2022/07/23 02:57:39;;;;;;;20.60;13.90;;;16.20;98.80;;;;;;4992401;28;20497;-76
2022/07/23 03:00:05;;;;;;;20.77;14.15;;;16.20;99.90;;;;;;4995223;28;20033;-76
2022/07/23 03:02:31;;;;;;;20.10;13.82;;;16.10;98.80;;;;;;5013973;28;20041;-76
2022/07/23 03:04:57;;;;;;;19.83;14.38;;;16.00;97.60;;;;;;5012218;28;20053;-76
2022/07/23 03:07:22;;;;;;;22.15;12.40;;;16.00;98.90;;;;;;5009715;28;20029;-75
2022/07/23 03:09:48;;;;;;;19.42;13.95;;;16.00;99.90;;;;;;4989417;28;20033;-76
2022/07/23 03:12:13;;;;;;;16.58;12.57;;;16.00;99.90;;;;;;4973668;28;20546;-76
2022/07/23 03:14:39;;;;;;;17.58;12.95;;;16.00;99.90;;;;;;5023222;28;20026;-75
2022/07/23 03:17:04;;;;;;;18.25;12.63;;;16.00;99.90;;;;;;5008831;28;20042;-76
2022/07/23 03:19:30;;;;;;;19.52;12.82;;;15.90;99.90;;;;;;4990229;28;20034;-76
2022/07/23 03:21:56;;;;;;;16.55;13.18;;;15.90;99.90;;;;;;4973592;28;20405;-76
2022/07/23 03:24:23;;;;;;;20.85;12.20;;;15.90;99.90;;;;;;5003105;28;20505;-76
2022/07/23 03:26:49;;;;;;;19.67;11.75;;;15.90;99.90;;;;;;5006656;28;20620;-76
2022/07/23 03:29:14;;;;;;;19.27;13.15;;;15.90;99.90;;;;;;4987778;28;20128;-75
2022/07/23 03:31:40;;;;;;;25.08;12.93;;;15.90;99.90;;;;;;4990367;28;20026;-75
2022/07/23 03:34:05;;;;;;;21.88;13.00;;;15.80;99.90;;;;;;4972253;28;20030;-76
2022/07/23 03:36:31;;;;;;;19.40;12.73;;;15.80;99.90;;;;;;4993421;28;20029;-76
2022/07/23 03:38:56;;;;;;;15.13;12.18;;;15.70;99.90;;;;;;4974265;28;20044;-75
2022/07/23 03:41:22;;;;;;;17.23;11.68;;;15.60;99.90;;;;;;4990317;28;20034;-76
2022/07/23 03:43:47;;;;;;;16.98;12.63;;;15.60;99.90;;;;;;4988094;28;20030;-75
2022/07/23 03:46:13;;;;;;;18.30;12.55;;;15.50;99.90;;;;;;4971921;28;20022;-76
2022/07/23 03:48:38;;;;;;;16.55;11.95;;;15.50;99.90;;;;;;4991136;28;20046;-75
2022/07/23 03:51:04;;;;;;;17.65;12.50;;;15.50;99.90;;;;;;5008636;28;20053;-75
2022/07/23 03:53:30;;;;;;;18.60;13.07;;;15.40;99.90;;;;;;4997698;28;20033;-75
2022/07/23 03:55:55;;;;;;;17.48;13.15;;;15.30;99.90;;;;;;5006911;28;20053;-76
2022/07/23 03:58:21;;;;;;;18.85;12.25;;;15.30;99.90;;;;;;5011288;28;20026;-76
2022/07/23 04:00:46;;;;;;;17.08;12.45;;;15.20;99.90;;;;;;4989896;28;20113;-76
2022/07/23 04:03:12;;;;;;;19.70;12.70;;;15.20;99.90;;;;;;4979998;28;20112;-75
2022/07/23 04:05:37;;;;;;;19.00;12.38;;;15.20;99.90;;;;;;5018713;28;20037;-75
2022/07/23 04:08:03;;;;;;;18.65;13.10;;;15.20;99.90;;;;;;5013653;28;20033;-75
2022/07/23 04:10:28;;;;;;;17.85;13.27;;;15.20;99.90;;;;;;5013692;28;20040;-75
2022/07/23 04:12:54;;;;;;;20.20;12.70;;;15.20;99.90;;;;;;5009687;28;20505;-76
2022/07/23 04:15:20;;;;;;;15.25;12.30;;;15.10;99.90;;;;;;5013472;28;20034;-77
2022/07/23 04:17:46;;;;;;;18.45;13.05;;;15.20;99.90;;;;;;5012394;28;20402;-75
2022/07/23 04:20:12;;;;;;;18.98;13.38;;;15.10;99.90;;;;;;4995385;28;20479;-75
2022/07/23 04:22:37;;;;;;;17.52;13.40;;;15.10;99.90;;;;;;5011072;28;20068;-76
2022/07/23 04:25:03;;;;;;;19.52;14.32;;;15.20;99.90;;;;;;5010727;28;20030;-76
2022/07/23 04:27:29;;;;;;;21.27;14.70;;;15.20;99.90;;;;;;5014233;28;20496;-76
2022/07/23 04:29:55;;;;;;;19.65;14.82;;;15.30;99.90;;;;;;5008817;28;20030;-76
2022/07/23 04:32:20;;;;;;;22.35;14.20;;;15.20;99.90;;;;;;4992750;28;20600;-76
2022/07/23 04:34:46;;;;;;;21.05;14.85;;;15.20;99.90;;;;;;4992760;28;20389;-76
2022/07/23 04:37:11;;;;;;;23.25;14.73;;;15.30;99.90;;;;;;4976150;28;20541;-76
2022/07/23 04:39:37;;;;;;;25.00;16.25;;;15.40;99.90;;;;;;4994077;28;20092;-76
2022/07/23 04:42:02;;;;;;;23.38;15.75;;;15.40;99.90;;;;;;4994787;28;20037;-76
2022/07/23 04:44:28;;;;;;;24.45;16.00;;;15.50;99.90;;;;;;5010644;28;20053;-76
2022/07/23 04:46:54;;;;;;;27.38;16.02;;;15.50;99.90;;;;;;4988638;28;20497;-76
2022/07/23 04:49:19;;;;;;;21.20;15.07;;;15.70;99.90;;;;;;5014838;28;20734;-76
2022/07/23 04:51:45;;;;;;;24.98;17.40;;;15.70;99.90;;;;;;5012652;28;20080;-77
2022/07/23 04:54:10;;;;;;;25.73;15.90;;;15.70;99.90;;;;;;5013287;28;20125;-77
2022/07/23 04:56:36;;;;;;;26.17;16.48;;;15.80;99.90;;;;;;5009688;28;20371;-76
2022/07/23 04:59:01;;;;;;;21.92;16.60;;;16.00;99.90;;;;;;5010246;28;20042;-77
2022/07/23 05:01:27;;;;;;;28.35;17.17;;;16.10;99.90;;;;;;4974719;28;20033;-77
2022/07/23 05:03:53;;;;;;;30.08;19.85;;;16.20;99.90;;;;;;4990640;28;20030;-77
2022/07/23 05:06:18;;;;;;;29.05;19.48;;;16.20;99.90;;;;;;4974986;28;20076;-77
2022/07/23 05:08:44;;;;;;;26.17;17.52;;;16.30;99.90;;;;;;5009764;28;20034;-75
2022/07/23 05:11:09;;;;;;;22.08;16.83;;;16.40;99.90;;;;;;5012003;28;20417;-77
2022/07/23 05:13:35;;;;;;;25.20;16.60;;;16.50;99.90;;;;;;4996711;28;20491;-77
2022/07/23 05:16:00;;;;;;;20.65;16.30;;;16.50;99.90;;;;;;4992423;28;20480;-77
2022/07/23 05:18:26;;;;;;;21.15;15.02;;;16.60;99.90;;;;;;5010971;28;20057;-77
2022/07/23 05:20:51;;;;;;;22.83;16.73;;;16.70;99.90;;;;;;4996542;28;20041;-74
2022/07/23 05:23:17;;;;;;;22.60;16.77;;;16.70;99.90;;;;;;4995415;28;20034;-76
2022/07/23 05:25:42;;;;;;;25.25;16.73;;;16.80;99.90;;;;;;5007115;28;20085;-76
2022/07/23 05:28:08;;;;;;;21.48;17.67;;;17.00;99.90;;;;;;4994191;28;20405;-76
2022/07/23 05:30:34;;;;;;;20.27;16.65;;;17.10;99.90;;;;;;5013424;28;20041;-76
2022/07/23 05:32:59;;;;;;;25.80;18.67;;;17.20;99.90;;;;;;4975741;28;20117;-76
2022/07/23 05:35:25;;;;;;;25.67;19.42;;;17.20;99.90;;;;;;4991786;28;20420;-75
2022/07/23 05:37:52;;;;;;;22.80;17.73;;;17.30;99.90;;;;;;5006078;28;20305;-76
2022/07/23 05:40:18;;;;;;;21.02;15.20;;;17.30;99.90;;;;;;5008265;28;20025;-76
2022/07/23 05:42:43;;;;;;;19.30;16.05;;;17.40;99.90;;;;;;5010212;28;20037;-76
2022/07/23 05:45:09;;;;;;;18.63;12.80;;;17.50;99.90;;;;;;4977910;28;24717;-75
2022/07/23 05:47:42;;;;;;;18.80;14.82;;;17.50;99.90;;;;;;4999356;28;20152;-76
2022/07/23 05:50:08;;;;;;;18.40;14.00;;;17.60;99.90;;;;;;4991268;28;20046;-76
2022/07/23 05:52:33;;;;;;;22.05;14.75;;;17.60;99.90;;;;;;4995587;28;20327;-75
2022/07/23 05:54:59;;;;;;;16.00;11.95;;;17.60;99.90;;;;;;4990749;28;20026;-76
2022/07/23 05:57:24;;;;;;;10.63;9.32;;;17.60;99.90;;;;;;5011050;28;20037;-76
2022/07/23 05:59:50;;;;;;;14.20;9.65;;;17.70;99.90;;;;;;5011150;28;20065;-76
2022/07/23 06:02:16;;;;;;;19.67;13.23;;;17.80;99.90;;;;;;4966182;28;20030;-76
2022/07/23 06:04:42;;;;;;;25.50;17.35;;;17.80;99.90;;;;;;4991728;28;20859;-76
2022/07/23 06:07:07;;;;;;;13.73;10.48;;;17.80;99.90;;;;;;4991722;28;20523;-77
2022/07/23 06:09:33;;;;;;;21.13;14.25;;;17.80;99.90;;;;;;4990880;28;20125;-76
2022/07/23 06:11:58;;;;;;;15.75;12.45;;;17.90;99.90;;;;;;5006108;28;20064;-76
2022/07/23 06:14:24;;;;;;;13.70;11.75;;;18.00;99.90;;;;;;5010507;28;20030;-76
2022/07/23 06:16:49;;;;;;;13.82;9.00;;;18.00;99.90;;;;;;4978763;28;20089;-75
2022/07/23 06:19:15;;;;;;;18.23;10.57;;;18.10;99.90;;;;;;4992974;28;20178;-75
2022/07/23 06:21:40;;;;;;;11.90;9.20;;;18.30;99.90;;;;;;4988886;28;20093;-74
2022/07/23 06:24:06;;;;;;;9.25;7.00;;;18.40;99.90;;;;;;4992036;28;20036;-76
2022/07/23 06:26:32;;;;;;;9.15;8.20;;;18.50;99.90;;;;;;5029742;28;20061;-76
2022/07/23 06:28:57;;;;;;;11.45;7.60;;;18.60;99.90;;;;;;4993655;28;20022;-75
2022/07/23 06:31:23;;;;;;;25.83;19.95;;;18.80;99.90;;;;;;5010255;28;20034;-78
2022/07/23 06:33:49;;;;;;;27.15;21.00;;;19.00;99.90;;;;;;5015492;28;20049;-76
2022/07/23 06:36:15;;;;;;;21.67;17.42;;;19.20;99.90;;;;;;5007788;28;20033;-77
2022/07/23 06:38:40;;;;;;;24.92;18.98;;;19.50;99.90;;;;;;4993554;28;20368;-75
2022/07/23 06:41:06;;;;;;;21.38;18.65;;;19.70;99.90;;;;;;4986080;28;20485;-75
2022/07/23 06:43:32;;;;;;;27.00;20.27;;;20.10;99.90;;;;;;4987060;28;20040;-81
2022/07/23 06:45:58;;;;;;;27.33;18.77;;;20.40;99.90;;;;;;4961387;28;20038;-77
2022/07/23 06:48:23;;;;;;;26.17;21.58;;;20.80;99.90;;;;;;4977549;28;20113;-78
2022/07/23 06:50:49;;;;;;;25.48;17.05;;;21.10;99.90;;;;;;4995901;28;20042;-77
2022/07/23 06:53:14;;;;;;;17.00;11.70;;;21.40;99.90;;;;;;4987041;28;20023;-76
2022/07/23 06:55:40;;;;;;;20.35;17.02;;;21.60;99.90;;;;;;5011070;28;20087;-77
2022/07/23 06:58:05;;;;;;;24.52;16.73;;;21.80;99.90;;;;;;4992911;28;20065;-76
2022/07/23 07:00:32;;;;;;;14.88;11.98;;;22.20;99.90;;;;;;4997596;28;20263;-76
2022/07/23 07:02:58;;;;;;;16.67;11.40;;;22.50;99.90;;;;;;4992567;28;20121;-77
2022/07/23 07:05:25;;;;;;;14.27;12.05;;;22.60;99.90;;;;;;5008212;28;20504;-77
2022/07/23 07:07:50;;;;;;;23.52;15.90;;;22.70;99.90;;;;;;4989260;28;20072;-77
2022/07/23 07:10:17;;;;;;;22.00;16.92;;;23.10;99.90;;;;;;5009319;28;20061;-77
2022/07/23 07:12:43;;;;;;;21.42;12.48;;;23.40;99.90;;;;;;4994766;28;20030;-77
2022/07/23 07:15:08;;;;;;;17.88;13.90;;;23.30;99.90;;;;;;4988714;28;20077;-77
2022/07/23 07:17:34;;;;;;;22.25;16.75;;;23.50;99.90;;;;;;4992590;28;20040;-77
2022/07/23 07:19:59;;;;;;;24.00;17.52;;;23.80;99.90;;;;;;4986452;28;20397;-77
2022/07/23 07:22:25;;;;;;;23.85;17.63;;;24.10;99.90;;;;;;5009643;28;20041;-78
2022/07/23 07:24:50;;;;;;;22.02;17.67;;;24.20;99.90;;;;;;4970689;28;20041;-77
2022/07/23 07:27:19;;;;;;;22.50;16.95;;;24.20;99.90;;;;;;5007960;28;20026;-77
2022/07/23 07:29:45;;;;;;;20.27;15.57;;;24.10;99.90;;;;;;4974527;28;20026;-77
2022/07/23 07:32:10;;;;;;;23.85;16.45;;;23.90;99.90;;;;;;4997912;28;20046;-77
2022/07/23 07:34:36;;;;;;;21.80;15.95;;;24.00;99.90;;;;;;5013787;28;20397;-77
2022/07/23 07:37:01;;;;;;;19.92;15.93;;;24.20;99.90;;;;;;5015963;28;20037;-78
2022/07/23 07:39:27;;;;;;;18.92;15.00;;;24.40;99.90;;;;;;5001210;28;20059;-78
2022/07/23 07:41:54;;;;;;;18.58;13.55;;;24.60;99.90;;;;;;5000202;28;20065;-78
2022/07/23 07:44:20;;;;;;;17.08;13.48;;;24.70;99.90;;;;;;5009266;28;20033;-78
2022/07/23 07:46:46;;;;;;;19.52;13.80;;;24.90;99.90;;;;;;5014130;28;20044;-78
2022/07/23 07:49:11;;;;;;;20.70;14.23;;;25.10;99.90;;;;;;5011523;28;20042;-78
2022/07/23 07:51:37;;;;;;;16.23;13.82;;;25.20;99.90;;;;;;4996647;28;20481;-78
2022/07/23 07:54:02;;;;;;;18.05;15.30;;;25.40;99.90;;;;;;5010201;28;20034;-78
2022/07/23 07:56:28;;;;;;;15.52;13.20;;;25.60;99.90;;;;;;4981700;28;20080;-78
2022/07/23 07:58:53;;;;;;;19.75;17.67;;;25.90;99.90;;;;;;5008437;28;20038;-78
2022/07/23 08:01:19;;;;;;;20.88;18.58;;;26.00;99.90;;;;;;5010636;28;20069;-78
2022/07/23 08:03:45;;;;;;;22.60;18.42;;;26.20;99.90;;;;;;5013026;28;20493;-78
2022/07/23 08:06:11;;;;;;;20.27;16.63;;;26.30;99.90;;;;;;4980912;28;20053;-78
2022/07/23 08:08:36;;;;;;;23.02;17.98;;;26.30;99.90;;;;;;5015219;28;20555;-79
2022/07/23 08:11:02;;;;;;;19.23;16.23;;;26.50;99.90;;;;;;4999150;28;20021;-79
2022/07/23 08:13:28;;;;;;;20.77;18.83;;;26.70;99.90;;;;;;5015730;28;20488;-79
2022/07/23 08:15:53;;;;;;;20.15;16.35;;;26.80;99.90;;;;;;4993804;28;20038;-79
2022/07/23 08:18:20;;;;;;;19.95;17.75;;;26.80;99.50;;;;;;4997184;28;20039;-79
2022/07/23 08:20:45;;;;;;;19.35;16.90;;;27.10;99.60;;;;;;4977857;28;20064;-79
2022/07/23 08:23:11;;;;;;;18.42;16.63;;;27.20;98.70;;;;;;4993317;28;20045;-79
2022/07/23 08:25:38;;;;;;;18.80;16.83;;;27.30;97.20;;;;;;4997897;28;20034;-79
2022/07/23 08:28:05;;;;;;;18.77;15.27;;;27.30;96.40;;;;;;4990438;28;20034;-79
2022/07/23 08:30:31;;;;;;;14.95;13.45;;;27.40;96.20;;;;;;4976368;28;20718;-79
2022/07/23 08:33:00;;;;;;;12.52;11.13;;;27.50;96.10;;;;;;4975812;28;20049;-79
2022/07/23 08:35:32;;;;;;;13.80;11.27;;;27.60;95.00;;;;;;5025275;28;20036;-79
2022/07/23 08:37:58;;;;;;;15.07;12.65;;;27.70;95.10;;;;;;4980632;28;20057;-79
2022/07/23 08:40:26;;;;;;;15.40;11.73;;;27.90;95.60;;;;;;5008652;28;20038;-79
2022/07/23 08:42:51;;;;;;;13.05;10.60;;;28.00;94.50;;;;;;4996631;28;20037;-79
2022/07/23 08:45:19;;;;;;;9.77;8.90;;;27.90;92.90;;;;;;4993425;28;20079;-79
2022/07/23 08:47:44;;;;;;;11.82;10.10;;;27.80;92.80;;;;;;5015548;28;20390;-79
2022/07/23 08:50:10;;;;;;;12.13;10.07;;;27.90;92.10;;;;;;5016806;28;20044;-79
2022/07/23 08:52:36;;;;;;;7.40;6.70;;;28.10;92.00;;;;;;5007413;28;20401;-79
2022/07/23 08:55:01;;;;;;;9.88;7.93;;;28.00;91.20;;;;;;4994858;28;20041;-79
2022/07/23 08:57:27;;;;;;;9.18;8.00;;;28.20;91.90;;;;;;4978230;28;20029;-79
2022/07/23 08:59:53;;;;;;;7.78;6.97;;;28.30;91.70;;;;;;4995681;28;20038;-79
2022/07/23 09:02:18;;;;;;;7.63;6.57;;;28.40;90.40;;;;;;5012542;28;20030;-80
2022/07/23 09:04:44;;;;;;;10.27;6.72;;;28.40;89.80;;;;;;4990539;28;20040;-80
2022/07/23 09:07:09;;;;;;;6.70;6.03;;;28.50;90.30;;;;;;4991197;28;20030;-80
2022/07/23 09:09:35;;;;;;;9.60;5.43;;;28.60;88.30;;;;;;4995035;28;20026;-80
2022/07/23 09:12:05;;;;;;;4.47;3.58;;;28.70;89.10;;;;;;4994128;28;20612;-80
2022/07/23 09:14:40;;;;;;;6.47;5.82;;;28.60;85.40;;;;;;4975135;28;20506;-80
2022/07/23 09:17:13;;;;;;;5.80;3.85;;;29.00;86.20;;;;;;5005362;28;20034;-80
2022/07/23 09:19:40;;;;;;;10.77;6.80;;;29.00;85.60;;;;;;4992611;28;20033;-80
2022/07/23 09:22:19;;;;;;;8.38;7.07;;;29.20;85.40;;;;;;5015409;28;20064;-80
2022/07/23 09:25:03;;;;;;;7.75;6.47;;;29.30;83.40;;;;;;4991105;28;20037;-81
2022/07/23 09:27:50;;;;;;;6.85;5.45;;;29.60;86.20;;;;;;5028802;28;20036;-81
2022/07/23 09:30:16;;;;;;;7.63;4.82;;;29.50;81.70;;;;;;5009011;28;20084;-81
2022/07/23 09:32:41;;;;;;;8.75;4.55;;;29.50;79.90;;;;;;4993166;28;20037;-81
2022/07/23 09:35:07;;;;;;;5.50;3.72;;;29.70;81.30;;;;;;4990229;28;20437;-82
2022/07/23 09:37:33;;;;;;;4.95;3.33;;;29.80;77.10;;;;;;5009564;28;20116;-81
2022/07/23 09:40:06;;;;;;;5.85;3.63;;;29.90;78.90;;;;;;5009479;28;20033;-81
2022/07/23 09:42:32;;;;;;;5.07;4.43;;;29.90;76.90;;;;;;4997479;28;20065;-82
2022/07/23 09:44:58;;;;;;;5.90;4.03;;;30.20;74.10;;;;;;4995692;28;20053;-82
2022/07/23 09:47:25;;;;;;;5.65;4.30;;;30.10;76.60;;;;;;4992883;28;20408;-81
2022/07/23 09:49:58;;;;;;;3.90;2.95;;;30.30;74.00;;;;;;5006978;28;20388;-81
2022/07/23 09:52:28;;;;;;;7.38;4.70;;;30.20;73.70;;;;;;4995624;28;20056;-82
2022/07/23 09:54:58;;;;;;;3.13;2.20;;;30.20;73.70;;;;;;4983249;28;20030;-82
2022/07/23 09:57:24;;;;;;;6.50;2.30;;;30.40;75.60;;;;;;4992576;28;20033;-82
2022/07/23 09:59:50;;;;;;;4.28;3.40;;;30.40;73.00;;;;;;4997932;28;20181;-83
2022/07/23 10:02:16;;;;;;;6.45;3.55;;;30.50;73.30;;;;;;5002483;28;20036;-83
2022/07/23 10:04:41;;;;;;;8.05;3.88;;;30.80;75.40;;;;;;5029032;28;20461;-83
2022/07/23 10:07:09;;;;;;;9.05;4.05;;;31.10;72.90;;;;;;4998091;28;20014;-83
2022/07/23 10:09:38;;;;;;;5.47;3.50;;;31.10;66.30;;;;;;5006357;28;20040;-84
2022/07/23 10:14:34;;;;;;;4.28;3.58;;;31.00;64.10;;;;;;5015492;28;20033;-84
2022/07/23 10:17:01;;;;;;;7.28;3.53;;;30.90;65.50;;;;;;5030567;28;20053;-84
2022/07/23 10:19:27;;;;;;;4.28;3.88;;;31.00;66.50;;;;;;4992187;28;20041;-84
2022/07/23 10:22:01;;;;;;;3.83;2.20;;;31.10;65.80;;;;;;5009928;28;20494;-84
2022/07/23 10:24:49;;;;;;;5.63;3.88;;;31.10;67.30;;;;;;4974183;28;20495;-84
2022/07/23 10:27:39;;;;;;;3.45;1.95;;;31.20;66.20;;;;;;5013203;28;20037;-84
2022/07/23 10:30:07;;;;;;;3.70;2.35;;;31.40;68.30;;;;;;5021548;28;20069;-85
2022/07/23 10:33:18;;;;;;;2.78;1.92;;;31.70;63.10;;;;;;5008654;28;20141;-84
2022/07/23 10:35:53;;;;;;;4.18;2.22;;;31.70;66.00;;;;;;5013413;28;20033;-84
2022/07/23 10:38:26;;;;;;;2.08;1.73;;;31.90;64.10;;;;;;4974498;28;20039;-84
2022/07/23 10:40:59;;;;;;;5.05;2.95;;;31.90;63.30;;;;;;5003540;28;20109;-84
2022/07/23 10:43:24;;;;;;;2.42;1.77;;;32.10;63.20;;;;;;5008204;28;20030;-84
2022/07/23 10:45:50;;;;;;;3.65;2.10;;;32.30;63.50;;;;;;4990751;28;20044;-83
2022/07/23 10:48:20;;;;;;;3.42;2.40;;;32.30;61.80;;;;;;4997107;28;20033;-82
2022/07/23 10:51:08;;;;;;;5.30;2.25;;;32.60;59.50;;;;;;5015087;28;20038;-81
2022/07/23 10:53:52;;;;;;;5.13;3.58;;;32.70;59.30;;;;;;5005829;28;20061;-82
2022/07/23 10:56:49;;;;;;;3.38;3.05;;;32.80;57.90;;;;;;5007378;28;20033;-81
2022/07/23 10:59:14;;;;;;;1.95;1.77;;;32.80;56.30;;;;;;5011068;28;20390;-81
2022/07/23 11:01:40;;;;;;;2.50;1.90;;;32.70;59.80;;;;;;5009430;28;20034;-80
2022/07/23 11:04:07;;;;;;;3.70;2.08;;;32.70;59.90;;;;;;4990480;28;20056;-81
2022/07/23 11:07:07;;;;;;;5.28;3.08;;;32.80;60.60;;;;;;5008000;28;20057;-80
2022/07/23 11:09:41;;;;;;;2.15;1.95;;;33.40;56.90;;;;;;4961625;28;20058;-80
2022/07/23 11:12:13;;;;;;;4.45;2.53;;;33.40;55.80;;;;;;5011857;28;20037;-79
2022/07/23 11:14:58;;;;;;;4.13;2.20;;;33.30;57.20;;;;;;5000146;28;20161;-80
2022/07/23 11:17:25;;;;;;;2.40;2.20;;;33.40;53.30;;;;;;4998434;28;20025;-77
2022/07/23 11:20:09;;;;;;;2.53;1.70;;;33.40;55.90;;;;;;4992540;28;20118;-79
2022/07/23 11:22:43;;;;;;;2.88;1.70;;;33.60;55.20;;;;;;5002157;28;20088;-77
2022/07/23 11:25:09;;;;;;;4.50;2.00;;;33.60;54.20;;;;;;4994458;28;20037;-77
2022/07/23 11:27:45;;;;;;;2.10;1.70;;;33.60;54.20;;;;;;4990579;28;20294;-78
2022/07/23 11:30:13;;;;;;;;;;;33.70;55.00;;;;;;5019941;28;20037;-79
2022/07/23 11:32:40;;;;;;;3.67;1.67;;;33.80;53.60;;;;;;4976549;28;19910;-78
2022/07/23 11:35:27;;;;;;;4.43;2.10;;;33.90;56.70;;;;;;4978995;28;20065;-78
2022/07/23 11:37:58;;;;;;;2.67;1.75;;;34.00;54.40;;;;;;4984435;28;20037;-79
2022/07/23 11:40:23;;;;;;;3.03;1.42;;;34.00;52.60;;;;;;4971029;28;20145;-78
2022/07/23 11:42:53;;;;;;;2.85;1.63;;;34.10;53.50;;;;;;5009097;28;20561;-79
2022/07/23 11:45:18;;;;;;;2.75;1.73;;;34.20;52.40;;;;;;5008040;28;20450;-79
2022/07/23 11:47:44;;;;;;;3.17;2.03;;;34.10;53.30;;;;;;4990758;28;20125;-80
2022/07/23 11:50:10;;;;;;;2.25;2.05;;;34.30;53.20;;;;;;5007055;28;20244;-77
2022/07/23 11:52:40;;;;;;;3.50;2.28;;;34.50;53.60;;;;;;5007804;28;20532;-80
2022/07/23 11:55:10;;;;;;;3.67;1.10;;;34.80;52.80;;;;;;5005063;28;20076;-78
2022/07/23 11:57:40;;;;;;;1.50;1.27;;;34.80;52.50;;;;;;4989161;28;20045;-78
2022/07/23 12:00:13;;;;;;;1.60;1.50;;;34.70;53.10;;;;;;4988275;28;20049;-78
2022/07/23 12:02:46;;;;;;;1.65;1.55;;;35.20;52.50;;;;;;5006997;28;20029;-78
2022/07/23 12:05:16;;;;;;;2.38;1.90;;;35.10;52.80;;;;;;5007165;28;20034;-78
2022/07/23 12:07:45;;;;;;;1.75;1.33;;;35.10;50.60;;;;;;5025549;28;20033;-78
2022/07/23 12:10:13;;;;;;;1.77;1.10;;;34.90;52.20;;;;;;4973076;28;20053;-78
2022/07/23 12:12:49;;;;;;;2.38;1.40;;;35.00;51.00;;;;;;4990793;28;20044;-78
2022/07/23 12:15:15;;;;;;;1.65;1.40;;;34.90;51.00;;;;;;4992614;28;20405;-79
2022/07/23 12:17:42;;;;;;;2.42;1.35;;;34.90;52.40;;;;;;5008001;28;20059;-78
2022/07/23 12:20:09;;;;;;;1.75;1.50;;;35.30;51.20;;;;;;5002060;28;20395;-79
2022/07/23 12:22:42;;;;;;;3.08;1.70;;;35.20;49.30;;;;;;5012017;28;20034;-78
2022/07/23 12:25:15;;;;;;;3.60;1.67;;;35.20;50.40;;;;;;5009723;28;20493;-78
2022/07/23 12:27:42;;;;;;;1.98;1.30;;;35.40;49.90;;;;;;5015214;28;20049;-78
2022/07/23 12:30:25;;;;;;;2.00;1.58;;;35.40;49.80;;;;;;5014329;28;20485;-78
2022/07/23 12:32:55;;;;;;;1.73;1.63;;;35.50;48.90;;;;;;4979171;28;20026;-79
2022/07/23 12:35:21;;;;;;;1.63;1.52;;;35.60;49.50;;;;;;5006752;28;20520;-78
2022/07/23 12:37:48;;;;;;;2.22;1.90;;;35.60;48.70;;;;;;4979869;28;20385;-77